Terminal Aerodrome Forecast
Issued by NWS Portland, OR

Home | Current Version | Previous Version | Text Only | Print | Product List | Glossary On
Versions: 1 2 3 4 5 6 7 8 9 10 11 12 13 14 15 16 17
000
FTUS46 KPQR 222340
TAFTTD
TAF
KTTD 222340Z 2300/2324 09009KT P6SM SCT035 OVC050
     FM230500 12009KT P6SM -RA BKN025 OVC040
     FM231200 22006KT 5SM -RADZ BR SCT015 OVC025
     FM232000 25007KT 5SM -RADZ BR SCT015 OVC025=

USA.gov is the U.S. government's official web portal to all federal, state and local government web resources and services.